createdAt,value
2023-01-13T00:00:15.292Z,8.21
2023-01-13T00:02:42.025Z,8.17
2023-01-13T00:05:09.782Z,8.15
2023-01-13T00:07:36.551Z,8.09
2023-01-13T00:10:03.150Z,8.05
2023-01-13T00:12:29.709Z,8.04
2023-01-13T00:14:56.206Z,8.08
2023-01-13T00:17:22.773Z,8.06
2023-01-13T00:19:49.332Z,8.15
2023-01-13T00:22:18.240Z,8.11
2023-01-13T00:24:45.273Z,8.16
2023-01-13T00:27:11.806Z,8.16
2023-01-13T00:29:39.706Z,8.12
2023-01-13T00:32:06.288Z,8.10
2023-01-13T00:34:32.859Z,8.01
2023-01-13T00:36:59.387Z,8.01
2023-01-13T00:39:26.047Z,8.02
2023-01-13T00:42:11.069Z,8.01
2023-01-13T00:44:37.609Z,8.00
2023-01-13T00:47:04.185Z,7.97
2023-01-13T00:49:30.669Z,8.01
2023-01-13T00:51:57.174Z,8.06
2023-01-13T00:54:23.756Z,8.09
2023-01-13T00:56:50.288Z,8.00
2023-01-13T00:59:16.786Z,7.96
2023-01-13T01:01:43.616Z,8.02
2023-01-13T01:04:12.200Z,8.01
2023-01-13T01:06:38.817Z,7.96
2023-01-13T01:09:06.363Z,7.96
2023-01-13T01:11:33.986Z,7.90
2023-01-13T01:14:03.612Z,7.90
2023-01-13T01:16:32.058Z,7.93
2023-01-13T01:18:59.505Z,7.95
2023-01-13T01:21:28.104Z,7.96
2023-01-13T01:23:55.511Z,7.91
2023-01-13T01:26:24.733Z,7.82
2023-01-13T01:28:51.879Z,7.89
2023-01-13T01:31:26.565Z,7.87
2023-01-13T01:33:54.593Z,7.92
2023-01-13T01:36:22.819Z,7.94
2023-01-13T01:38:50.035Z,7.97
2023-01-13T01:41:21.838Z,7.94
2023-01-13T01:44:00.450Z,8.04
2023-01-13T01:46:34.174Z,8.04
2023-01-13T01:49:03.530Z,8.05
2023-01-13T01:51:34.722Z,8.11
2023-01-13T01:54:04.311Z,8.12
2023-01-13T01:56:32.527Z,8.15
2023-01-13T01:58:59.120Z,8.18
2023-01-13T02:01:26.091Z,8.22
2023-01-13T02:04:00.035Z,8.23
2023-01-13T02:06:28.050Z,8.20
2023-01-13T02:08:54.743Z,8.23
2023-01-13T02:11:54.201Z,8.28
2023-01-13T02:14:23.954Z,8.28
2023-01-13T02:17:07.390Z,8.33
2023-01-13T02:19:48.802Z,8.36
2023-01-13T02:22:44.214Z,8.33
2023-01-13T02:25:29.603Z,8.43
2023-01-13T02:28:29.949Z,8.44
2023-01-13T02:31:21.959Z,8.40
2023-01-13T02:34:16.948Z,8.30
2023-01-13T02:36:52.481Z,8.21
2023-01-13T02:39:42.702Z,8.21
2023-01-13T02:42:32.660Z,8.09
2023-01-13T02:45:07.255Z,7.96
2023-01-13T02:47:38.452Z,7.86
2023-01-13T02:50:17.370Z,7.78
2023-01-13T02:52:50.772Z,7.71
2023-01-13T02:55:22.694Z,7.68
2023-01-13T02:57:51.037Z,7.68
2023-01-13T03:00:19.699Z,7.71
2023-01-13T03:02:48.161Z,7.77
2023-01-13T03:05:16.807Z,7.77
2023-01-13T03:07:53.494Z,7.78
2023-01-13T03:10:25.585Z,7.74
2023-01-13T03:13:08.553Z,7.66
2023-01-13T03:15:54.689Z,7.60
2023-01-13T03:18:45.704Z,7.57
2023-01-13T03:21:40.999Z,7.53
2023-01-13T03:24:11.663Z,7.57
2023-01-13T03:26:48.429Z,7.62
2023-01-13T03:29:27.524Z,7.69
2023-01-13T03:32:01.374Z,7.59
2023-01-13T03:34:39.768Z,7.61
2023-01-13T03:37:09.172Z,7.66
2023-01-13T03:39:39.347Z,7.72
2023-01-13T03:42:11.523Z,7.69
2023-01-13T03:44:46.384Z,7.71
2023-01-13T03:47:35.765Z,7.74
2023-01-13T03:50:08.019Z,7.76
2023-01-13T03:52:43.985Z,7.76
2023-01-13T03:55:18.695Z,7.75
2023-01-13T03:57:55.296Z,7.75
2023-01-13T04:00:29.774Z,7.84
2023-01-13T04:03:04.959Z,7.86
2023-01-13T04:05:33.856Z,7.94
2023-01-13T04:08:27.508Z,7.92
2023-01-13T04:11:02.513Z,7.91
2023-01-13T04:13:32.829Z,7.92
2023-01-13T04:16:00.617Z,7.90
2023-01-13T04:18:30.817Z,7.84
2023-01-13T04:21:00.196Z,7.84
2023-01-13T04:23:28.116Z,7.83
2023-01-13T04:25:55.463Z,7.73
2023-01-13T04:28:22.587Z,7.64
2023-01-13T04:30:49.344Z,7.65
2023-01-13T04:33:18.552Z,7.57
2023-01-13T04:35:46.995Z,7.57
2023-01-13T04:38:16.108Z,7.50
2023-01-13T04:40:42.733Z,7.48
2023-01-13T04:43:09.689Z,7.47
2023-01-13T04:45:36.391Z,7.47
2023-01-13T04:48:03.139Z,7.43
2023-01-13T04:50:29.696Z,7.42
2023-01-13T04:53:02.507Z,7.40
2023-01-13T04:55:29.108Z,7.45
2023-01-13T04:57:55.899Z,7.44
2023-01-13T05:00:23.808Z,7.46
2023-01-13T05:02:51.327Z,7.44
2023-01-13T05:05:18.616Z,7.46
2023-01-13T05:07:45.213Z,7.40
2023-01-13T05:10:12.067Z,7.31
2023-01-13T05:12:57.120Z,7.26
2023-01-13T05:15:42.011Z,7.23
2023-01-13T05:18:09.018Z,7.28
2023-01-13T05:20:35.528Z,7.32
2023-01-13T05:23:20.440Z,7.26
2023-01-13T05:25:48.799Z,7.23
2023-01-13T05:28:15.572Z,7.30
2023-01-13T05:30:44.425Z,7.30
2023-01-13T05:33:12.846Z,7.37
2023-01-13T05:35:41.269Z,7.40
2023-01-13T05:38:08.347Z,7.34
2023-01-13T05:40:53.545Z,7.32
2023-01-13T05:43:24.809Z,7.33
2023-01-13T05:45:51.408Z,7.31
2023-01-13T05:48:19.697Z,7.30
2023-01-13T05:50:49.199Z,7.26
2023-01-13T05:53:17.520Z,7.34
2023-01-13T05:55:45.018Z,7.36
2023-01-13T05:58:14.239Z,7.38
2023-01-13T06:00:41.972Z,7.27
2023-01-13T06:03:09.347Z,7.36
2023-01-13T06:05:37.169Z,7.32
2023-01-13T06:08:05.636Z,7.24
2023-01-13T06:10:32.749Z,7.23
2023-01-13T06:12:59.535Z,7.16
2023-01-13T06:15:26.353Z,7.19
2023-01-13T06:17:52.914Z,7.26
2023-01-13T06:20:19.597Z,7.28
2023-01-13T06:22:49.548Z,7.38
2023-01-13T06:25:20.060Z,7.48
2023-01-13T06:27:46.614Z,7.52
2023-01-13T06:30:13.396Z,7.57
2023-01-13T06:32:45.187Z,7.53
2023-01-13T06:35:15.485Z,7.53
2023-01-13T06:37:45.013Z,7.52
2023-01-13T06:40:13.596Z,7.56
2023-01-13T06:42:58.762Z,7.64
2023-01-13T06:45:27.554Z,7.70
2023-01-13T06:47:54.708Z,7.69
2023-01-13T06:50:21.215Z,7.72
2023-01-13T06:52:47.663Z,7.76
2023-01-13T06:55:16.397Z,7.82
2023-01-13T06:57:54.830Z,7.82
2023-01-13T07:00:23.653Z,7.83
2023-01-13T07:02:50.653Z,7.80
2023-01-13T07:05:18.319Z,7.77
2023-01-13T07:07:44.863Z,7.81
2023-01-13T07:10:13.729Z,7.78
2023-01-13T07:12:59.915Z,7.82
2023-01-13T07:15:27.114Z,7.89
2023-01-13T07:17:53.709Z,7.89
2023-01-13T07:20:20.179Z,7.85
2023-01-13T07:22:46.693Z,7.87
2023-01-13T07:25:13.373Z,7.83
2023-01-13T07:27:39.918Z,7.88
2023-01-13T07:30:07.621Z,7.90
2023-01-13T07:32:34.642Z,7.86
2023-01-13T07:35:05.749Z,7.85
2023-01-13T07:37:34.100Z,7.83
2023-01-13T07:40:01.289Z,7.85
2023-01-13T07:42:46.618Z,7.88
2023-01-13T07:45:13.153Z,7.87
2023-01-13T07:47:40.257Z,7.92
2023-01-13T07:50:08.321Z,7.95
2023-01-13T07:52:35.144Z,7.97
2023-01-13T07:55:01.737Z,7.97
2023-01-13T07:57:28.232Z,7.99
2023-01-13T07:59:54.800Z,8.00
2023-01-13T08:02:21.820Z,7.99
2023-01-13T08:04:48.416Z,8.02
2023-01-13T08:07:14.931Z,8.02
2023-01-13T08:09:41.583Z,8.11
2023-01-13T08:12:26.803Z,8.19
2023-01-13T08:14:54.095Z,8.23
2023-01-13T08:17:20.887Z,8.31
2023-01-13T08:19:47.549Z,8.38
2023-01-13T08:22:14.188Z,8.43
2023-01-13T08:24:40.975Z,8.53
2023-01-13T08:27:07.512Z,8.61
2023-01-13T08:29:34.016Z,8.70
2023-01-13T08:32:00.599Z,8.80
2023-01-13T08:34:27.174Z,8.86
2023-01-13T08:36:53.684Z,8.84
2023-01-13T08:39:20.204Z,8.83
2023-01-13T08:41:55.592Z,8.82
2023-01-13T08:44:30.777Z,8.82
2023-01-13T08:46:58.518Z,8.86
2023-01-13T08:49:25.467Z,8.86
2023-01-13T08:51:53.275Z,8.87
2023-01-13T08:54:20.281Z,8.96
2023-01-13T08:56:47.532Z,9.08
2023-01-13T08:59:19.580Z,9.12
2023-01-13T09:01:46.393Z,9.19
2023-01-13T09:04:21.837Z,9.16
2023-01-13T09:06:49.489Z,9.13
2023-01-13T09:09:16.366Z,9.11
2023-01-13T09:12:04.299Z,9.02
2023-01-13T09:14:32.999Z,8.90
2023-01-13T09:17:00.105Z,8.80
2023-01-13T09:19:27.756Z,8.71
2023-01-13T09:21:55.866Z,8.57
2023-01-13T09:24:22.805Z,8.46
2023-01-13T09:26:49.802Z,8.34
2023-01-13T09:29:16.877Z,8.30
2023-01-13T09:31:44.542Z,8.36
2023-01-13T09:34:34.076Z,8.44
2023-01-13T09:37:01.288Z,8.49
2023-01-13T09:39:27.931Z,8.54
2023-01-13T09:42:15.450Z,8.57
2023-01-13T09:44:50.895Z,8.65
2023-01-13T09:47:35.068Z,8.71
2023-01-13T09:50:25.234Z,8.73
2023-01-13T09:52:52.779Z,8.77
2023-01-13T09:55:39.880Z,8.81
2023-01-13T09:58:15.258Z,8.84
2023-01-13T10:00:48.373Z,8.89
2023-01-13T10:03:30.297Z,8.91
2023-01-13T10:06:16.678Z,8.93
2023-01-13T10:08:45.978Z,8.95
2023-01-13T10:11:36.725Z,8.97
2023-01-13T10:14:10.571Z,8.95
2023-01-13T10:16:45.961Z,8.99
2023-01-13T10:19:16.893Z,9.00
2023-01-13T10:22:09.360Z,9.01
2023-01-13T10:24:54.763Z,9.07
2023-01-13T10:27:35.222Z,9.07
2023-01-13T10:30:24.357Z,9.04
2023-01-13T10:33:01.746Z,9.04
2023-01-13T10:35:59.882Z,9.07
2023-01-13T10:38:37.076Z,9.10
2023-01-13T10:41:20.213Z,9.14
2023-01-13T10:43:53.114Z,9.18
2023-01-13T10:46:20.717Z,9.19
2023-01-13T10:48:58.242Z,9.27
2023-01-13T10:51:43.500Z,9.31
2023-01-13T10:54:13.070Z,9.42
2023-01-13T10:56:44.989Z,9.49
2023-01-13T10:59:22.411Z,9.56
2023-01-13T11:02:13.149Z,9.60
2023-01-13T11:04:55.854Z,9.68
2023-01-13T11:07:35.021Z,9.74
2023-01-13T11:10:19.847Z,9.84
2023-01-13T11:12:54.253Z,9.78
2023-01-13T11:15:39.425Z,9.80
2023-01-13T11:18:25.375Z,9.85
2023-01-13T11:20:53.022Z,9.74
2023-01-13T11:23:29.983Z,9.71
2023-01-13T11:26:09.930Z,9.58
2023-01-13T11:29:02.475Z,9.55
2023-01-13T11:31:36.457Z,9.44
2023-01-13T11:34:36.250Z,9.36
2023-01-13T11:37:12.841Z,9.30
2023-01-13T11:39:48.067Z,9.28
2023-01-13T11:42:38.301Z,9.27
2023-01-13T11:45:37.256Z,9.28
2023-01-13T11:48:04.713Z,9.25
2023-01-13T11:50:42.063Z,9.26
2023-01-13T11:53:30.025Z,9.27
2023-01-13T11:56:15.884Z,9.20
2023-01-13T11:58:53.152Z,9.20
2023-01-13T12:01:29.040Z,9.22
2023-01-13T12:04:23.859Z,9.22
2023-01-13T12:07:13.644Z,9.24
2023-01-13T12:10:13.264Z,9.24
2023-01-13T12:13:11.273Z,9.23
2023-01-13T12:16:01.951Z,9.21
2023-01-13T12:18:34.147Z,9.17
2023-01-13T12:21:01.475Z,9.18
2023-01-13T12:23:35.035Z,9.16
2023-01-13T12:26:07.693Z,9.18
2023-01-13T12:29:11.554Z,9.19
2023-01-13T12:31:40.377Z,9.20
2023-01-13T12:34:12.709Z,9.20
2023-01-13T12:37:08.581Z,9.13
2023-01-13T12:39:52.160Z,9.14
2023-01-13T12:43:03.093Z,9.13
2023-01-13T12:45:31.715Z,9.14
2023-01-13T12:47:59.980Z,9.16
2023-01-13T12:50:26.492Z,9.17
2023-01-13T12:52:53.311Z,9.17
2023-01-13T12:55:25.332Z,9.23
2023-01-13T12:57:59.549Z,9.26
2023-01-13T13:00:40.973Z,9.30
2023-01-13T13:03:18.563Z,9.33
2023-01-13T13:05:58.440Z,9.31
2023-01-13T13:08:45.329Z,9.30
2023-01-13T13:11:34.847Z,9.35
2023-01-13T13:14:06.400Z,9.33
2023-01-13T13:16:37.148Z,9.31
2023-01-13T13:19:18.881Z,9.28
2023-01-13T13:22:07.193Z,9.24
2023-01-13T13:24:33.897Z,9.22
2023-01-13T13:27:22.772Z,9.20
2023-01-13T13:29:52.101Z,9.21
2023-01-13T13:32:37.145Z,9.21
2023-01-13T13:35:36.497Z,9.22
2023-01-13T13:38:37.298Z,9.21
2023-01-13T13:41:39.084Z,9.17
2023-01-13T13:44:49.188Z,9.22
2023-01-13T13:47:16.069Z,9.20
2023-01-13T13:49:54.461Z,9.23
2023-01-13T13:52:27.486Z,9.23
2023-01-13T13:55:04.244Z,9.26
2023-01-13T13:57:39.555Z,9.31
2023-01-13T14:00:18.061Z,9.33
2023-01-13T14:02:54.119Z,9.34
2023-01-13T14:05:28.096Z,9.38
2023-01-13T14:08:07.608Z,9.45
2023-01-13T14:10:37.273Z,9.52
2023-01-13T14:13:28.089Z,9.57
2023-01-13T14:16:03.465Z,9.63
2023-01-13T14:18:35.417Z,9.76
2023-01-13T14:21:31.754Z,9.89
2023-01-13T14:24:03.343Z,9.97
2023-01-13T14:26:32.201Z,10.00
2023-01-13T14:29:01.539Z,9.93
2023-01-13T14:31:29.579Z,9.86
2023-01-13T14:33:58.328Z,9.75
2023-01-13T14:36:39.314Z,9.63
2023-01-13T14:39:05.862Z,9.58
2023-01-13T14:41:39.532Z,9.57
2023-01-13T14:44:27.696Z,9.57
2023-01-13T14:46:57.278Z,9.62
2023-01-13T14:49:30.414Z,9.71
2023-01-13T14:52:16.950Z,9.77
2023-01-13T14:54:46.369Z,9.77
2023-01-13T14:57:25.972Z,9.69
2023-01-13T14:59:57.490Z,9.63
2023-01-13T15:02:30.045Z,9.54
2023-01-13T15:05:00.655Z,9.45
2023-01-13T15:07:31.923Z,9.44
2023-01-13T15:10:01.500Z,9.38
2023-01-13T15:12:33.637Z,9.39
2023-01-13T15:15:00.159Z,9.31
2023-01-13T15:17:26.674Z,9.33
2023-01-13T15:19:53.677Z,9.34
2023-01-13T15:22:21.609Z,9.34
2023-01-13T15:24:48.175Z,9.37
2023-01-13T15:27:22.049Z,9.37
2023-01-13T15:29:48.533Z,9.34
2023-01-13T15:32:18.983Z,9.33
2023-01-13T15:34:47.098Z,9.33
2023-01-13T15:37:19.781Z,9.31
2023-01-13T15:39:46.871Z,9.28
2023-01-13T15:42:32.300Z,9.26
2023-01-13T15:45:17.580Z,9.20
2023-01-13T15:47:45.062Z,9.23
2023-01-13T15:50:18.346Z,9.23
2023-01-13T15:52:44.877Z,9.24
2023-01-13T15:55:11.417Z,9.17
2023-01-13T15:57:41.879Z,9.10
2023-01-13T16:00:15.011Z,9.06
2023-01-13T16:02:42.116Z,9.04
2023-01-13T16:05:08.699Z,9.02
2023-01-13T16:07:35.371Z,9.00
2023-01-13T16:10:04.930Z,9.02
2023-01-13T16:12:32.192Z,9.04
2023-01-13T16:14:58.661Z,9.04
2023-01-13T16:17:29.818Z,9.03
2023-01-13T16:19:56.397Z,9.03
2023-01-13T16:22:23.010Z,9.04
2023-01-13T16:24:49.591Z,9.02
2023-01-13T16:27:22.202Z,9.07
2023-01-13T16:29:50.224Z,9.10
2023-01-13T16:32:17.427Z,9.07
2023-01-13T16:34:43.942Z,9.03
2023-01-13T16:37:23.391Z,9.01
2023-01-13T16:39:50.999Z,8.97
2023-01-13T16:42:17.779Z,8.95
2023-01-13T16:44:44.256Z,9.03
2023-01-13T16:47:19.737Z,9.04
2023-01-13T16:49:46.466Z,9.07
2023-01-13T16:52:13.033Z,9.05
2023-01-13T16:54:39.554Z,9.05
2023-01-13T16:57:07.706Z,9.07
2023-01-13T16:59:34.207Z,9.05
2023-01-13T17:02:02.111Z,9.02
2023-01-13T17:04:28.758Z,9.05
2023-01-13T17:07:03.678Z,9.03
2023-01-13T17:09:30.951Z,9.00
2023-01-13T17:11:57.946Z,9.00
2023-01-13T17:14:25.373Z,9.00
2023-01-13T17:16:53.846Z,9.01
2023-01-13T17:19:22.390Z,8.93
2023-01-13T17:21:51.125Z,8.79
2023-01-13T17:24:17.720Z,8.61
2023-01-13T17:26:48.943Z,8.46
2023-01-13T17:29:23.395Z,8.38
2023-01-13T17:31:51.057Z,8.27
2023-01-13T17:34:18.308Z,8.19
2023-01-13T17:36:44.909Z,8.10
2023-01-13T17:39:19.657Z,8.09
2023-01-13T17:41:46.541Z,8.11
2023-01-13T17:44:14.664Z,8.08
2023-01-13T17:46:42.280Z,8.04
2023-01-13T17:49:13.716Z,8.11
2023-01-13T17:51:41.122Z,8.14
2023-01-13T17:54:11.972Z,8.14
2023-01-13T17:56:40.026Z,8.13
2023-01-13T17:59:08.917Z,8.07
2023-01-13T18:01:36.733Z,8.03
2023-01-13T18:04:03.593Z,8.07
2023-01-13T18:06:30.325Z,8.07
2023-01-13T18:08:58.913Z,8.01
2023-01-13T18:11:25.857Z,8.03
2023-01-13T18:13:57.728Z,8.07
2023-01-13T18:16:26.664Z,8.03
2023-01-13T18:19:17.278Z,8.11
2023-01-13T18:22:02.453Z,8.13
2023-01-13T18:24:47.285Z,8.13
2023-01-13T18:27:18.900Z,8.15
2023-01-13T18:29:46.236Z,8.13
2023-01-13T18:32:13.236Z,8.09
2023-01-13T18:34:40.185Z,8.10
2023-01-13T18:37:08.470Z,8.17
2023-01-13T18:39:37.365Z,8.13
2023-01-13T18:42:26.615Z,8.18
2023-01-13T18:44:54.245Z,8.23
2023-01-13T18:47:20.759Z,8.21
2023-01-13T18:49:47.231Z,8.21
2023-01-13T18:52:13.787Z,8.26
2023-01-13T18:54:40.249Z,8.22
2023-01-13T18:57:06.741Z,8.24
2023-01-13T18:59:34.657Z,8.24
2023-01-13T19:02:02.208Z,8.30
2023-01-13T19:04:29.714Z,8.27
2023-01-13T19:07:01.016Z,8.29
2023-01-13T19:09:29.265Z,8.36
2023-01-13T19:11:57.105Z,8.35
2023-01-13T19:14:34.265Z,8.34
2023-01-13T19:17:01.716Z,8.31
2023-01-13T19:19:28.788Z,8.34
2023-01-13T19:21:56.394Z,8.35
2023-01-13T19:24:25.933Z,8.43
2023-01-13T19:26:54.273Z,8.52
2023-01-13T19:29:20.797Z,8.53
2023-01-13T19:31:47.444Z,8.59
2023-01-13T19:34:14.518Z,8.59
2023-01-13T19:36:41.026Z,8.59
2023-01-13T19:39:08.387Z,8.54
2023-01-13T19:41:53.723Z,8.56
2023-01-13T19:44:39.063Z,8.44
2023-01-13T19:47:06.514Z,8.39
2023-01-13T19:49:33.452Z,8.39
2023-01-13T19:51:59.983Z,8.38
2023-01-13T19:54:26.467Z,8.35
2023-01-13T19:56:52.981Z,8.37
2023-01-13T19:59:22.226Z,8.38
2023-01-13T20:01:49.013Z,8.34
2023-01-13T20:04:18.403Z,8.36
2023-01-13T20:06:45.093Z,8.35
2023-01-13T20:09:12.142Z,8.26
2023-01-13T20:11:38.669Z,8.14
2023-01-13T20:14:05.284Z,8.02
2023-01-13T20:16:33.776Z,7.88
2023-01-13T20:19:00.353Z,7.78
2023-01-13T20:21:27.115Z,7.74
2023-01-13T20:23:53.694Z,7.68
2023-01-13T20:26:21.219Z,7.70
2023-01-13T20:28:47.840Z,7.68
2023-01-13T20:31:14.947Z,7.61
2023-01-13T20:33:41.779Z,7.64
2023-01-13T20:36:08.979Z,7.52
2023-01-13T20:38:38.553Z,7.50
2023-01-13T20:41:25.492Z,7.45
2023-01-13T20:43:53.790Z,7.37
2023-01-13T20:46:21.502Z,7.41
2023-01-13T20:48:48.225Z,7.47
2023-01-13T20:51:14.900Z,7.50
2023-01-13T20:53:41.668Z,7.53
2023-01-13T20:56:09.409Z,7.48
2023-01-13T20:58:39.098Z,7.45
2023-01-13T21:01:06.054Z,7.38
2023-01-13T21:03:33.141Z,7.34
2023-01-13T21:05:59.708Z,7.29
2023-01-13T21:08:26.237Z,7.26
2023-01-13T21:11:00.036Z,7.24
2023-01-13T21:13:45.393Z,7.19
2023-01-13T21:16:12.110Z,7.10
2023-01-13T21:18:57.012Z,7.07
2023-01-13T21:21:23.588Z,7.04
2023-01-13T21:23:52.988Z,7.07
2023-01-13T21:26:23.065Z,7.03
2023-01-13T21:28:50.520Z,7.03
2023-01-13T21:31:18.125Z,7.04
2023-01-13T21:33:47.526Z,7.04
2023-01-13T21:36:15.066Z,7.00
2023-01-13T21:38:41.621Z,6.96
2023-01-13T21:41:09.405Z,6.91
2023-01-13T21:43:56.288Z,6.85
2023-01-13T21:46:42.619Z,6.86
2023-01-13T21:49:09.660Z,6.82
2023-01-13T21:51:36.641Z,6.81
2023-01-13T21:54:03.185Z,6.82
2023-01-13T21:56:29.678Z,6.88
2023-01-13T21:58:56.593Z,6.89
2023-01-13T22:01:23.246Z,6.91
2023-01-13T22:04:08.520Z,6.95
2023-01-13T22:06:35.115Z,7.02
2023-01-13T22:09:01.621Z,7.10
2023-01-13T22:11:28.740Z,7.23
2023-01-13T22:14:21.511Z,7.23
2023-01-13T22:16:49.996Z,7.23
2023-01-13T22:19:18.284Z,7.23
2023-01-13T22:21:44.989Z,7.25
2023-01-13T22:24:11.939Z,7.34
2023-01-13T22:26:38.638Z,7.32
2023-01-13T22:29:05.222Z,7.31
2023-01-13T22:31:31.973Z,7.24
2023-01-13T22:33:58.557Z,7.24
2023-01-13T22:36:25.249Z,7.24
2023-01-13T22:39:00.484Z,7.22
2023-01-13T22:41:27.163Z,7.14
2023-01-13T22:43:53.662Z,7.16
2023-01-13T22:46:20.419Z,7.11
2023-01-13T22:48:48.360Z,7.05
2023-01-13T22:51:16.944Z,7.01
2023-01-13T22:53:43.635Z,6.95
2023-01-13T22:56:16.663Z,6.81
2023-01-13T22:58:44.283Z,6.77
2023-01-13T23:01:13.939Z,6.76
2023-01-13T23:03:41.152Z,6.69
2023-01-13T23:06:08.090Z,6.66
2023-01-13T23:08:35.297Z,6.63
2023-01-13T23:11:04.324Z,6.65
2023-01-13T23:13:31.351Z,6.63
2023-01-13T23:16:12.884Z,6.52
2023-01-13T23:18:42.487Z,6.44
2023-01-13T23:21:11.556Z,6.34
2023-01-13T23:23:38.784Z,6.27
2023-01-13T23:26:06.810Z,6.21
2023-01-13T23:28:34.748Z,6.16
2023-01-13T23:31:06.887Z,6.07
2023-01-13T23:33:33.488Z,6.04
2023-01-13T23:36:03.645Z,6.00
2023-01-13T23:38:30.678Z,5.97
2023-01-13T23:40:57.639Z,5.97
2023-01-13T23:43:26.453Z,6.02
2023-01-13T23:46:01.184Z,5.98
2023-01-13T23:48:27.683Z,5.92
2023-01-13T23:51:01.970Z,5.92
2023-01-13T23:53:33.626Z,5.84
2023-01-13T23:56:02.093Z,5.85
2023-01-13T23:58:29.834Z,5.79
